• Join FlightAware (Why Join?)
  • Login
  • US Flag 
06:44AM EDT


 

Airport Tracker/Info


-or-


 

Live Flight TrackerFlight Track Log ✈ UAL5822 ✈ 30-Apr-2013 ✈ KORD - KTYS

Flight Track Log - Related Links

Times and Time Zones

All times are in EDT time to prevent confusion due to time zone crossing. See the UAL5822 flight status page for this flight to view local times or setup timezone preferences in your user account.

Time Position Orientation Groundspeed Altitude Reporting Facility
EDT Latitude Longitude Course Direction KTS MPH feet Rate Location/Type
10:46AM 41.9333 -87.9000 154° Southeast 177 204 2,200  Level Chicago TRACON
10:47AM 41.8833 -87.8667 154° Southeast 263 303 4,300 2,580 Climbing Chicago TRACON
10:49AM 41.7506 -87.7692 151° Southeast 270 311 10,200 2,820 Climbing Chicago Center
10:50AM 41.6778 -87.7261 156° South 283 326 13,000 2,040 Climbing Chicago Center
10:51AM 41.6006 -87.6803 156° South 302 348 14,500 1,440 Climbing Chicago Center
10:52AM 41.5103 -87.6250 155° Southeast 350 403 16,000 1,500 Climbing Chicago Center
10:53AM 41.4153 -87.5711 157° South 367 422 17,600 1,860 Climbing Chicago Center
10:54AM 41.2906 -87.5497 173° South 375 432 19,900 2,040 Climbing Chicago Center
10:55AM 41.1867 -87.5303 172° South 376 433 21,900 1,740 Climbing Chicago Center
10:56AM 41.0803 -87.5008 168° South 387 445 23,600 1,740 Climbing Chicago Center
10:57AM 40.9692 -87.4719 169° South 402 463 25,500 2,040 Climbing Chicago Center
10:58AM 40.8636 -87.4439 169° South 393 452 27,900 2,040 Climbing Chicago Center
10:59AM 40.7628 -87.4164 168° South 374 430 29,700 1,680 Climbing Chicago Center
11:00AM 40.6597 -87.3894 169° South 379 436 31,400 1,740 Climbing Chicago Center
11:01AM 40.5392 -87.3506 166° South 373 429 33,400 1,500 Climbing Chicago Center
11:02AM 40.4492 -87.2811 150° Southeast 377 434 34,500 780 Climbing Chicago Center
11:03AM 40.3558 -87.2081 149° Southeast 389 448 35,000 240 Climbing Chicago Center
11:04AM 40.2553 -87.1325 150° Southeast 414 476 35,000  Level Chicago Center
11:06AM 40.1475 -87.0511 150° Southeast 448 516 35,000  Level Chicago Center
11:06AM 40.0456 -86.9750 150° Southeast 460 529 35,000  Level Indianapolis Center
11:07AM 39.9317 -86.8903 150° Southeast 468 539 35,000  Level Indianapolis Center
11:08AM 39.8183 -86.8047 150° Southeast 468 539 35,000  Level Indianapolis Center
11:09AM 39.7064 -86.7214 150° Southeast 464 534 35,000  Level Indianapolis Center
11:10AM 39.5939 -86.6383 150° Southeast 463 533 35,000  Level Indianapolis Center
11:11AM 39.4819 -86.5550 150° Southeast 462 532 35,000  Level Indianapolis Center
11:12AM 39.3697 -86.4733 151° Southeast 460 529 35,000  Level Indianapolis Center
11:14AM 39.2342 -86.3725 150° Southeast 464 534 35,000  Level Indianapolis Center
11:15AM 39.1219 -86.2911 151° Southeast 461 531 35,000  Level Indianapolis Center
11:16AM 39.0089 -86.2086 150° Southeast 463 533 35,000  Level Indianapolis Center
11:17AM 38.8969 -86.1261 150° Southeast 462 532 35,000  Level Indianapolis Center
11:18AM 38.7833 -86.0444 151° Southeast 464 534 35,000  Level Indianapolis Center
11:19AM 38.6708 -85.9633 151° Southeast 460 529 35,000 -540 Level Indianapolis Center
11:20AM 38.5575 -85.8822 151° Southeast 462 532 33,900 -1,020 Descending Indianapolis Center
11:21AM 38.4472 -85.8036 151° Southeast 453 521 33,000 -480 Descending Indianapolis Center
11:22AM 38.3342 -85.7225 151° Southeast 460 529 33,000  Level Indianapolis Center
11:23AM 38.2208 -85.6428 151° Southeast 462 532 33,000  Level Indianapolis Center
11:24AM 38.0856 -85.5464 151° Southeast 463 533 33,000 -360 Level Indianapolis Center
11:25AM 37.9714 -85.4667 151° Southeast 463 533 32,300 -900 Descending Indianapolis Center
11:26AM 37.8581 -85.3861 151° Southeast 464 534 31,200 -660 Descending Indianapolis Center
11:27AM 37.7469 -85.3072 151° Southeast 459 528 31,000 -120 Descending Indianapolis Center
11:28AM 37.6344 -85.2297 151° Southeast 460 529 31,000  Level Indianapolis Center
11:29AM 37.5219 -85.1525 151° Southeast 459 528 31,000 -240 Level Indianapolis Center
11:30AM 37.3908 -85.0614 151° Southeast 460 529 30,600 -900 Descending Indianapolis Center
11:31AM 37.2800 -84.9844 151° Southeast 456 525 29,200 -1,380 Descending Indianapolis Center
11:32AM 37.1672 -84.9067 151° Southeast 460 529 27,800 -1,440 Descending Indianapolis Center
11:33AM 37.0519 -84.8283 152° Southeast 470 541 26,300 -1,500 Descending Indianapolis Center
11:34AM 36.9414 -84.7528 151° Southeast 472 543 24,800 -1,800 Descending Indianapolis Center
11:35AM 36.8067 -84.6611 151° Southeast 462 532 22,700 -2,160 Descending Indianapolis Center
11:36AM 36.6986 -84.5867 151° Southeast 449 517 20,400 -2,340 Descending Indianapolis Center
11:37AM 36.5942 -84.5164 152° Southeast 431 496 18,000 -2,340 Descending Indianapolis Center
11:38AM 36.4936 -84.4492 152° Southeast 414 476 15,700 -2,160 Descending Indianapolis Center
11:39AM 36.3953 -84.3828 151° Southeast 402 463 13,600 -2,100 Descending Indianapolis Center
11:40AM 36.3519 -84.3583 156° South 403 464 12,800 -1,800 Descending Atlanta Center
11:41AM 36.2625 -84.2989 152° Southeast 391 450 11,200 -900 Descending Atlanta Center
11:42AM 36.1750 -84.2394 151° Southeast 370 426 11,000 -480 Descending Atlanta Center
11:43AM 36.1000 -84.1622 140° Southeast 359 413 10,300 -600 Descending Atlanta Center
11:44AM 36.0228 -84.1056 149° Southeast 342 394 9,900 -1,020 Descending Atlanta Center
11:45AM 35.9478 -84.0900 170° South 297 342 8,300 -2,040 Descending Atlanta Center
11:46AM 35.8747 -84.0978 185° South 275 316 5,900 -2,160 Descending Atlanta Center
11:47AM 35.8122 -84.1053 186° South 249 287 4,000 -1,620 Descending Atlanta Center
11:48AM 35.7706 -84.0797 154° Southeast 175 201 2,700 -1,200 Descending Atlanta Center
11:49AM 35.7747 -84.0389 83° East 100 115 1,600 -1,140 Descending Atlanta Center